Details From DAAG - Alger Houari Boumediene
To DAUH - OUED IRARA
Flight Number -
Tags generated
Created
Modified
Stats Distance 344 nm / 638 km
Max Altitude 35,000 ft / 10,668 m
Waypoints 5
Social Downloads 9
Likes 0
Share

Download

Looking for another format? Having issues loading an existing format? Contact us
Advertisement - Login to hide

Notes

Basic altitude profile: - Ascent Rate: 2200ft/min - Ascent Speed: 170kts - Cruise Altitude: 190ft - Cruise Speed: 230kts - Descent Rate: 1500ft/min - Descent Speed: 230kts Options: - Use NATs: yes - Use PACOTS: yes - Use low airways: yes - Use high airways: yes

Route

DAAG BSA J36 TGU DAUH

ID Type Via Altitude (ft/m) Position (lat/lon) Dist (leg/tot) Name
O DAAG APT - 0 / 0 36.69752 / 3.21308 - / 0 nm Alger Houari Boumediene
BSA VOR - 31,600 / 9,632 35.51528 / 4.40167 91 / 91 nm BOU SAADA VOR-DME
MAHDI FIX J36 (AWY-HI) 35,000 / 10,668 34.61667 / 5.00000 61 / 152 nm
TGU VOR J36 (AWY-HI) 17,800 / 5,425 33.05694 / 6.08861 108 / 261 nm TOUGGOURT VOR-DME
O DAUH APT - 0 / 0 31.67290 / 6.14046 83 / 344 nm OUED IRARA

Altitude Profile

Advertisement - Login to hide

Weather


0- 5 10 15 20 25 30 35+ Temperature / °C

Clouds and Precipitation
Forecast for 2022-05-24 18:00 UTC. Updated 5 hours ago

Ground ~20,000 ft ~40,000 ft Winds

DAAG

Details ICAO DAAG (ALG)
Name Alger/Houari Boumediene
Region Algeria
Timezone Africa/Algiers (UTC+1.0)
Stats Elevation 82 ft / 25 m (AMSL)
Location 36.697500° 3.212250°
Runways 2
Magnetic Variation 1.509° E

METAR

DAAG 242030Z 24006KT 9999 FEW023 22/14 Q1009

Decode

TAF

TAF DAAG 241700Z 2418/2518 VRB02KT 9999 FEW023 PROB30 TEMPO 2420/2512 FEW030CB BECMG 2508/2511 32010KT PROB40 TEMPO 2510/2518 32015G25KT 4000 -TSRA FEW026CB

Decode

Departure Runways

ID Width Length Bearing (true/mag) Surface Threshold Overrun Markings Lighting
05 197 ft / 60 m 11,494 ft / 3,503 m 52.68° / 51.17° CONCRETE 0 ft / 0 m 0 ft / 0 m PREC-APP CENTERLINE CALVERT
09 148 ft / 45 m 12,468 ft / 3,800 m 91.69° / 90.18° CONCRETE 984 ft / 300 m 0 ft / 0 m PREC-APP CENTERLINE
23 197 ft / 60 m 11,494 ft / 3,503 m 232.70° / 231.19° CONCRETE 0 ft / 0 m 0 ft / 0 m PREC-APP CENTERLINE
27 148 ft / 45 m 12,468 ft / 3,800 m 271.72° / 270.21° CONCRETE 0 ft / 0 m 0 ft / 0 m PREC-APP CENTERLINE

DAUH

Details ICAO DAUH (HME)
Name Hassi Messaoud/Krim Belkacem
Region Algeria
Timezone Africa/Algiers (UTC+1.0)
Stats Elevation 462 ft / 141 m (AMSL)
Location 31.672800° 6.140350°
Runways 1
Magnetic Variation 1.822° E

METAR

DAUH 242030Z 16005KT CAVOK 33/// Q1009

Decode

TAF

TAF DAUH 241700Z 2418/2518 17010KT CAVOK BECMG 2509/2512 24014KT PROB30 2510/2516 24024KT 3000 DRSA

Decode

Destination Runways

ID Width Length Bearing (true/mag) Surface Threshold Overrun Markings Lighting
18 138 ft / 42 m 9,945 ft / 3,031 m 184.21° / 182.39° ASPHALT 0 ft / 0 m 0 ft / 0 m PREC-APP EDGE THRESHOLD
36 138 ft / 42 m 9,945 ft / 3,031 m 4.21° / 2.39° ASPHALT 0 ft / 0 m 0 ft / 0 m PREC-APP EDGE THRESHOLD

Popular Alternatives